TimeCDT,TemperatureF,Dew PointF,Humidity,Sea Level PressureIn,VisibilityMPH,Wind Direction,Wind SpeedMPH,Gust SpeedMPH,PrecipitationIn,Events,Conditions,WindDirDegrees,DateUTC
12:51 AM,75.9,59.0,56,29.96,10.0,South,8.1,-,N/A,,Scattered Clouds,180,2013-08-02 05:51:00
1:51 AM,75.0,61.0,62,29.96,10.0,South,5.8,-,N/A,,Mostly Cloudy,190,2013-08-02 06:51:00
2:51 AM,75.0,62.1,64,29.93,10.0,South,9.2,-,N/A,,Mostly Cloudy,180,2013-08-02 07:51:00
3:51 AM,73.9,62.1,66,29.94,10.0,South,4.6,-,N/A,,Mostly Cloudy,180,2013-08-02 08:51:00
4:51 AM,73.0,62.1,68,29.96,10.0,SW,4.6,-,N/A,,Overcast,220,2013-08-02 09:51:00
5:51 AM,73.0,62.1,68,29.95,10.0,SW,3.5,-,N/A,,Overcast,230,2013-08-02 10:51:00
6:51 AM,73.0,64.0,73,29.95,10.0,SSW,5.8,-,N/A,,Overcast,210,2013-08-02 11:51:00
7:51 AM,73.9,64.0,71,29.96,10.0,SW,10.4,-,N/A,,Overcast,220,2013-08-02 12:51:00
8:51 AM,77.0,64.9,66,29.95,10.0,SW,9.2,-,N/A,,Mostly Cloudy,220,2013-08-02 13:51:00
9:51 AM,78.1,66.0,66,29.96,10.0,SSW,10.4,-,N/A,,Overcast,200,2013-08-02 14:51:00
10:51 AM,82.0,66.0,58,29.96,10.0,SW,13.8,-,N/A,,Mostly Cloudy,220,2013-08-02 15:51:00
11:51 AM,82.9,66.0,56,29.96,10.0,SW,12.7,-,N/A,,Mostly Cloudy,230,2013-08-02 16:51:00
12:51 PM,82.9,66.0,56,29.96,10.0,SSW,11.5,-,N/A,,Overcast,210,2013-08-02 17:51:00
1:51 PM,82.0,66.0,58,29.94,10.0,South,5.8,-,0.00,,Overcast,180,2013-08-02 18:51:00
2:51 PM,82.9,66.0,56,29.93,10.0,South,10.4,-,0.00,,Overcast,190,2013-08-02 19:51:00
3:51 PM,81.0,66.0,60,29.92,8.0,SSW,5.8,-,0.00,Rain,Light Rain,200,2013-08-02 20:51:00
4:51 PM,80.1,68.0,67,29.91,10.0,South,4.6,-,0.00,Rain,Light Rain,180,2013-08-02 21:51:00
5:19 PM,78.8,68.0,69,29.95,4.0,WSW,4.6,-,0.01,Rain,Light Rain,240,2013-08-02 22:19:00
5:41 PM,77.0,69.8,78,29.94,3.0,Calm,Calm,-,0.06,Rain,Rain,0,2013-08-02 22:41:00
5:51 PM,75.9,70.0,82,29.92,4.0,West,3.5,-,0.08,Rain,Light Rain,280,2013-08-02 22:51:00
6:00 PM,77.0,69.8,78,29.95,6.0,Variable,3.5,-,0.00,Rain,Light Rain,0,2013-08-02 23:00:00
6:31 PM,75.2,68.0,78,29.95,4.0,Calm,Calm,-,0.03,Rain,Light Rain,0,2013-08-02 23:31:00
6:51 PM,75.0,69.1,82,29.91,4.0,East,4.6,-,0.07,Rain,Light Rain,100,2013-08-02 23:51:00
7:21 PM,73.4,69.8,88,29.95,6.0,Calm,Calm,-,0.06,Rain,Light Rain,0,2013-08-03 00:21:00
7:29 PM,73.4,69.8,88,29.97,1.0,NNW,4.6,-,0.08,Rain,Heavy Rain,340,2013-08-03 00:29:00
7:35 PM,73.4,69.8,88,29.96,2.0,NE,5.8,-,0.16,Rain,Rain,40,2013-08-03 00:35:00
7:51 PM,73.9,71.1,91,29.93,2.0,NE,11.5,-,0.18,Rain,Light Rain,40,2013-08-03 00:51:00
7:58 PM,73.4,71.6,94,29.95,3.0,ENE,10.4,-,0.01,Rain,Light Rain,60,2013-08-03 00:58:00
8:24 PM,73.4,71.6,94,29.95,4.0,East,8.1,-,0.01,,Overcast,80,2013-08-03 01:24:00
8:51 PM,73.9,71.1,91,29.93,5.0,ENE,4.6,-,0.02,Rain,Light Rain,70,2013-08-03 01:51:00
9:00 PM,73.4,71.6,94,29.97,5.0,NNE,3.5,-,0.00,Rain,Light Rain,30,2013-08-03 02:00:00
9:06 PM,73.4,71.6,94,29.97,3.0,NE,4.6,-,0.03,Rain,Rain,50,2013-08-03 02:06:00
9:12 PM,73.4,71.6,94,29.97,2.0,ENE,4.6,-,0.05,Rain,Rain,60,2013-08-03 02:12:00
9:33 PM,73.4,71.6,94,29.96,5.0,ESE,8.1,-,0.07,Rain,Light Rain,110,2013-08-03 02:33:00
9:51 PM,73.9,71.1,91,29.94,6.0,East,4.6,-,0.07,,Overcast,80,2013-08-03 02:51:00
10:51 PM,73.9,70.0,87,29.91,9.0,SSE,9.2,-,N/A,,Mostly Cloudy,150,2013-08-03 03:51:00
11:51 PM,73.9,70.0,87,29.92,6.0,SSE,3.5,-,N/A,,Mostly Cloudy,160,2013-08-03 04:51:00